Time;durP1;ratioP1;P1;durP2;ratioP2;P2;SDS_P1;SDS_P2;PMS_P1;PMS_P2;Temp;Humidity;BMP_temperature;BMP_pressure;BME280_temperature;BME280_humidity;BME280_pressure;Samples;Min_cycle;Max_cycle;Signal;HPM_P1;HPM_P2
2023/08/08 02:32:48;;;;;;;1.63;1.47;;;13.20;99.90;;;;;;4775051;28;20958;-67
2023/08/08 02:35:15;;;;;;;2.63;2.03;;;13.20;99.90;;;;;;4968476;28;20314;-66
2023/08/08 02:37:42;;;;;;;3.37;1.63;;;13.20;99.90;;;;;;4965022;28;20213;-66
2023/08/08 02:40:10;;;;;;;1.87;1.77;;;13.10;99.90;;;;;;4965458;28;20579;-66
2023/08/08 02:42:37;;;;;;;3.00;1.90;;;13.10;99.90;;;;;;4964898;28;20298;-66
2023/08/08 02:45:05;;;;;;;2.37;1.70;;;13.10;99.90;;;;;;4964795;28;20207;-66
2023/08/08 02:47:32;;;;;;;3.57;1.60;;;13.00;99.90;;;;;;4972531;28;20938;-66
2023/08/08 02:50:00;;;;;;;3.73;1.70;;;13.00;99.90;;;;;;4984522;28;20357;-66
2023/08/08 02:52:27;;;;;;;4.60;1.60;;;13.00;99.90;;;;;;4981750;28;20257;-66
2023/08/08 02:54:54;;;;;;;2.20;1.60;;;13.00;99.90;;;;;;4965280;28;20207;-67
2023/08/08 02:57:21;;;;;;;3.27;2.03;;;13.00;99.90;;;;;;4966163;28;20273;-66
2023/08/08 02:59:48;;;;;;;4.10;1.70;;;13.00;99.90;;;;;;4984486;28;20401;-67
2023/08/08 03:02:15;;;;;;;4.27;2.00;;;13.00;99.90;;;;;;4983611;28;20979;-67
2023/08/08 03:04:41;;;;;;;4.03;1.93;;;13.00;99.90;;;;;;4979981;28;20290;-67
2023/08/08 03:07:10;;;;;;;3.53;2.20;;;13.00;99.90;;;;;;4978090;28;20301;-67
2023/08/08 03:09:37;;;;;;;5.13;1.97;;;12.90;99.90;;;;;;4984479;28;20321;-67
2023/08/08 03:12:04;;;;;;;2.73;1.80;;;13.00;99.90;;;;;;4985269;28;20220;-66
2023/08/08 03:14:31;;;;;;;4.73;2.10;;;12.90;99.90;;;;;;4985696;28;20206;-67
2023/08/08 03:16:58;;;;;;;2.30;1.73;;;13.00;99.90;;;;;;4985753;28;20206;-67
2023/08/08 03:19:25;;;;;;;2.33;1.90;;;13.00;99.90;;;;;;4985548;28;20309;-66
2023/08/08 03:21:52;;;;;;;3.07;1.77;;;12.90;99.90;;;;;;4985712;28;20734;-67
2023/08/08 03:24:20;;;;;;;2.73;1.83;;;12.90;99.90;;;;;;4985656;28;20213;-66
2023/08/08 03:26:47;;;;;;;4.33;1.93;;;12.90;99.90;;;;;;4985327;28;20225;-66
2023/08/08 03:29:14;;;;;;;4.33;2.40;;;13.00;99.90;;;;;;4985915;28;20233;-67
2023/08/08 03:31:40;;;;;;;3.37;1.83;;;13.00;99.90;;;;;;4970346;28;20246;-67
2023/08/08 03:34:07;;;;;;;5.00;2.03;;;13.00;99.90;;;;;;4958205;28;20208;-66
2023/08/08 03:36:34;;;;;;;2.20;1.93;;;13.00;99.90;;;;;;4946936;28;20207;-66
2023/08/08 03:39:03;;;;;;;3.37;2.10;;;13.00;99.90;;;;;;4955655;28;20221;-67
2023/08/08 03:41:31;;;;;;;7.10;1.83;;;12.90;99.90;;;;;;4966419;28;20265;-66
2023/08/08 03:43:58;;;;;;;2.00;1.90;;;13.00;99.90;;;;;;4965724;28;20221;-66
2023/08/08 03:46:25;;;;;;;2.27;2.03;;;13.00;99.90;;;;;;4965645;28;20274;-66
2023/08/08 03:48:52;;;;;;;2.70;1.93;;;13.00;99.90;;;;;;4965493;28;20213;-66
2023/08/08 03:51:19;;;;;;;4.87;2.30;;;12.90;99.90;;;;;;4966059;28;20440;-66
2023/08/08 03:53:45;;;;;;;2.60;1.83;;;13.00;99.90;;;;;;4966061;28;20213;-67
2023/08/08 03:56:12;;;;;;;3.70;2.23;;;13.00;99.90;;;;;;4966075;28;20298;-66
2023/08/08 03:58:40;;;;;;;3.50;2.37;;;13.00;99.90;;;;;;4965896;28;20565;-67
2023/08/08 04:01:07;;;;;;;4.57;2.40;;;13.00;99.90;;;;;;4965866;28;20306;-66
2023/08/08 04:03:34;;;;;;;3.37;1.90;;;13.10;99.90;;;;;;4966036;28;20211;-67
2023/08/08 04:06:01;;;;;;;2.37;1.90;;;13.10;99.90;;;;;;4965715;28;20310;-67
2023/08/08 04:08:28;;;;;;;2.33;2.10;;;13.10;99.90;;;;;;4965521;28;20305;-66
2023/08/08 04:10:55;;;;;;;2.67;2.43;;;13.10;99.90;;;;;;4965588;28;20235;-65
2023/08/08 04:13:21;;;;;;;3.57;1.70;;;13.10;99.90;;;;;;4966008;28;20301;-65
2023/08/08 04:15:51;;;;;;;3.03;1.80;;;13.10;99.90;;;;;;4969255;28;20206;-65
2023/08/08 04:18:18;;;;;;;2.77;2.10;;;13.10;99.90;;;;;;4969464;28;20210;-65
2023/08/08 04:20:46;;;;;;;3.03;1.73;;;13.10;99.90;;;;;;4969250;28;20218;-65
2023/08/08 04:23:13;;;;;;;3.07;1.97;;;13.10;99.90;;;;;;4969118;28;20203;-65
2023/08/08 04:25:40;;;;;;;2.77;1.80;;;13.10;99.90;;;;;;4969419;28;20301;-65
2023/08/08 04:28:07;;;;;;;2.73;2.07;;;13.20;99.90;;;;;;4969319;28;20333;-65
2023/08/08 04:30:35;;;;;;;4.60;2.03;;;13.20;99.90;;;;;;4963389;28;20321;-65
2023/08/08 04:33:03;;;;;;;3.33;2.00;;;13.20;99.90;;;;;;4949676;28;20239;-65
2023/08/08 04:35:30;;;;;;;3.30;1.80;;;13.20;99.90;;;;;;4950362;28;20298;-65
2023/08/08 04:37:57;;;;;;;2.17;2.00;;;13.20;99.90;;;;;;4950218;28;20261;-65
2023/08/08 04:40:24;;;;;;;3.13;2.00;;;13.20;99.90;;;;;;4950079;28;20222;-65
2023/08/08 04:42:52;;;;;;;2.17;1.70;;;13.20;99.90;;;;;;4950009;28;20310;-65
2023/08/08 04:45:20;;;;;;;3.80;2.00;;;13.30;99.90;;;;;;4961361;28;20214;-65
2023/08/08 04:47:47;;;;;;;2.47;1.90;;;13.30;99.90;;;;;;4969065;28;20586;-65
2023/08/08 04:50:16;;;;;;;3.47;1.90;;;13.30;99.90;;;;;;4969417;28;20350;-65
2023/08/08 04:52:42;;;;;;;3.23;2.10;;;13.30;99.90;;;;;;4968880;28;20217;-65
2023/08/08 04:55:10;;;;;;;2.83;1.77;;;13.40;99.90;;;;;;4969404;28;20214;-65
2023/08/08 04:57:37;;;;;;;2.80;1.70;;;13.40;99.90;;;;;;4968456;28;20298;-65
2023/08/08 05:00:07;;;;;;;2.53;2.00;;;13.40;99.90;;;;;;4968799;28;20241;-65
2023/08/08 05:02:34;;;;;;;3.63;1.90;;;13.40;99.90;;;;;;4968779;28;20206;-66
2023/08/08 05:05:01;;;;;;;2.33;1.80;;;13.40;99.90;;;;;;4967657;28;20217;-65
2023/08/08 05:07:30;;;;;;;1.93;1.73;;;13.40;99.90;;;;;;4968260;28;20309;-65
2023/08/08 05:09:56;;;;;;;2.47;1.90;;;13.50;99.90;;;;;;4968333;28;20242;-65
2023/08/08 05:12:23;;;;;;;1.93;1.80;;;13.50;99.90;;;;;;4968195;28;20732;-65
2023/08/08 05:14:50;;;;;;;3.40;2.27;;;13.50;99.90;;;;;;4968541;28;20216;-65
2023/08/08 05:17:17;;;;;;;2.77;1.73;;;13.40;99.90;;;;;;4974324;28;20220;-65
2023/08/08 05:19:44;;;;;;;4.03;1.83;;;13.50;99.90;;;;;;4988001;28;20300;-65
2023/08/08 05:22:11;;;;;;;2.43;1.90;;;13.60;99.90;;;;;;4987747;28;20302;-65
2023/08/08 05:24:39;;;;;;;3.90;1.83;;;13.70;99.90;;;;;;4987588;28;20261;-65
2023/08/08 05:27:06;;;;;;;2.33;2.00;;;13.70;99.90;;;;;;4987578;28;20739;-65
2023/08/08 05:29:34;;;;;;;1.87;1.70;;;13.80;99.90;;;;;;4987881;28;20591;-65
2023/08/08 05:32:01;;;;;;;1.63;1.53;;;13.90;99.90;;;;;;4969540;28;20238;-65
2023/08/08 05:34:27;;;;;;;3.20;1.77;;;14.00;99.90;;;;;;4967745;28;20207;-65
2023/08/08 05:36:54;;;;;;;2.83;2.00;;;14.00;99.90;;;;;;4967445;28;20230;-65
2023/08/08 05:39:21;;;;;;;4.10;1.97;;;14.10;99.90;;;;;;4967592;28;20211;-65
2023/08/08 05:41:49;;;;;;;3.20;1.80;;;14.20;99.90;;;;;;4967982;28;20238;-65
2023/08/08 05:44:16;;;;;;;1.80;1.70;;;14.20;99.90;;;;;;4967875;28;20298;-65
2023/08/08 05:46:43;;;;;;;1.83;1.67;;;14.20;99.90;;;;;;4967588;28;20294;-66
2023/08/08 05:49:10;;;;;;;2.00;1.70;;;14.30;99.90;;;;;;4967653;28;20294;-65
2023/08/08 05:51:37;;;;;;;2.77;1.60;;;14.20;99.90;;;;;;4967451;28;20258;-65
2023/08/08 05:54:04;;;;;;;3.10;1.80;;;14.20;99.90;;;;;;4967103;28;20281;-65
2023/08/08 05:56:36;;;;;;;4.43;2.00;;;14.20;99.90;;;;;;4967522;28;20211;-65
2023/08/08 05:59:05;;;;;;;2.50;1.90;;;14.30;99.90;;;;;;4967832;28;20210;-65
2023/08/08 06:01:32;;;;;;;2.23;2.00;;;14.30;99.90;;;;;;4967678;28;20584;-65
2023/08/08 06:03:59;;;;;;;2.47;2.00;;;14.40;99.90;;;;;;4967128;28;20218;-65
2023/08/08 06:06:26;;;;;;;2.03;1.70;;;14.50;99.90;;;;;;4967256;28;20215;-65
2023/08/08 06:08:53;;;;;;;3.17;2.10;;;14.60;99.90;;;;;;4967101;28;20238;-65
2023/08/08 06:11:21;;;;;;;4.80;2.30;;;14.60;99.90;;;;;;4967091;28;20246;-65
2023/08/08 06:13:48;;;;;;;6.70;2.10;;;14.60;99.90;;;;;;4966871;28;20305;-65
2023/08/08 06:16:18;;;;;;;3.90;2.30;;;14.70;99.90;;;;;;4966938;28;20673;-65
2023/08/08 06:18:45;;;;;;;3.53;2.33;;;14.80;99.90;;;;;;4967030;28;20223;-65
2023/08/08 06:21:12;;;;;;;2.10;1.93;;;14.80;99.90;;;;;;4967351;28;20771;-65
2023/08/08 06:23:39;;;;;;;1.90;1.80;;;14.90;99.90;;;;;;4967195;28;20302;-65
2023/08/08 06:26:06;;;;;;;4.97;1.90;;;15.00;99.90;;;;;;4967241;28;20646;-65
2023/08/08 06:28:33;;;;;;;2.13;1.83;;;15.00;99.90;;;;;;4967439;28;20222;-65
2023/08/08 06:31:00;;;;;;;3.13;2.10;;;15.00;99.90;;;;;;4966973;28;20342;-65
2023/08/08 06:33:28;;;;;;;3.83;2.27;;;15.00;99.90;;;;;;4967115;28;20203;-65
2023/08/08 06:35:56;;;;;;;2.10;1.80;;;15.00;99.90;;;;;;4966735;28;20306;-65
2023/08/08 06:38:23;;;;;;;3.00;1.80;;;15.00;99.90;;;;;;4966002;28;20955;-65
2023/08/08 06:40:51;;;;;;;4.03;2.17;;;14.90;99.90;;;;;;4966869;28;20242;-65
2023/08/08 06:43:18;;;;;;;1.93;1.73;;;14.90;99.90;;;;;;4966829;28;20297;-65
2023/08/08 06:45:45;;;;;;;2.57;2.07;;;14.80;99.90;;;;;;4966503;28;20309;-65
2023/08/08 06:48:11;;;;;;;3.27;2.13;;;14.90;99.90;;;;;;4966949;28;20211;-65
2023/08/08 06:50:40;;;;;;;3.93;2.00;;;14.90;99.90;;;;;;4966371;28;20234;-65
2023/08/08 06:53:07;;;;;;;2.60;1.93;;;14.90;99.90;;;;;;4966302;28;20301;-65
2023/08/08 06:55:33;;;;;;;2.70;1.90;;;15.00;99.90;;;;;;4966683;28;20309;-65
2023/08/08 06:58:00;;;;;;;2.40;2.17;;;15.20;99.90;;;;;;4966683;28;20210;-65
2023/08/08 07:00:28;;;;;;;3.87;1.97;;;15.30;99.90;;;;;;4966557;28;20573;-65
2023/08/08 07:02:55;;;;;;;3.60;1.93;;;15.40;99.90;;;;;;4966849;28;20218;-65
2023/08/08 07:05:22;;;;;;;2.87;2.10;;;15.40;99.90;;;;;;4966305;28;20677;-65
2023/08/08 07:07:50;;;;;;;2.13;1.90;;;15.40;99.90;;;;;;4966177;28;20306;-65
2023/08/08 07:10:17;;;;;;;1.90;1.80;;;15.40;99.90;;;;;;4966134;28;20331;-65
2023/08/08 07:12:45;;;;;;;4.13;2.10;;;15.40;99.90;;;;;;4966252;28;20297;-66
2023/08/08 07:15:12;;;;;;;1.80;1.70;;;15.40;99.90;;;;;;4966105;28;20213;-65
2023/08/08 07:17:39;;;;;;;3.87;2.10;;;15.40;99.90;;;;;;4966008;28;20258;-66
2023/08/08 07:20:07;;;;;;;1.90;1.80;;;15.40;99.90;;;;;;4966171;28;20676;-66
2023/08/08 07:22:34;;;;;;;2.90;1.73;;;15.40;99.90;;;;;;4965705;28;20642;-65
2023/08/08 07:25:04;;;;;;;2.97;1.93;;;15.40;99.90;;;;;;4966439;28;20217;-65
2023/08/08 07:27:31;;;;;;;1.90;1.80;;;15.40;99.90;;;;;;4966531;28;20226;-65
2023/08/08 07:29:58;;;;;;;5.23;1.90;;;15.50;99.90;;;;;;4965802;28;20209;-66
2023/08/08 07:32:25;;;;;;;3.57;2.13;;;15.50;99.90;;;;;;4965845;28;20234;-65
2023/08/08 07:34:52;;;;;;;2.57;1.90;;;15.50;99.90;;;;;;4966136;28;20672;-66
2023/08/08 07:37:19;;;;;;;3.33;2.10;;;15.60;99.90;;;;;;4965749;28;20211;-66
2023/08/08 07:39:46;;;;;;;1.97;1.73;;;15.60;99.90;;;;;;4965993;28;20219;-66
2023/08/08 07:42:14;;;;;;;1.60;1.50;;;15.60;99.90;;;;;;4966256;28;20305;-66
2023/08/08 07:44:41;;;;;;;4.00;1.90;;;15.60;99.90;;;;;;4965988;28;20210;-69
2023/08/08 07:47:08;;;;;;;3.67;2.07;;;15.60;99.90;;;;;;4965864;28;20337;-66
2023/08/08 07:49:35;;;;;;;2.23;1.70;;;15.60;99.90;;;;;;4966930;28;20681;-65
2023/08/08 07:52:02;;;;;;;2.10;1.80;;;15.60;99.90;;;;;;4969384;28;20325;-66
2023/08/08 07:54:29;;;;;;;4.50;2.00;;;15.70;99.90;;;;;;4969275;28;20203;-65
2023/08/08 07:56:56;;;;;;;2.63;1.80;;;15.70;99.90;;;;;;4969492;28;20305;-66
2023/08/08 07:59:24;;;;;;;1.77;1.67;;;15.80;99.90;;;;;;4969346;28;20317;-66
2023/08/08 08:01:51;;;;;;;2.50;1.90;;;15.90;99.90;;;;;;4969109;28;20214;-66
2023/08/08 08:04:17;;;;;;;3.27;2.17;;;15.90;99.90;;;;;;4969449;28;20321;-66
2023/08/08 08:06:47;;;;;;;2.43;1.80;;;16.00;99.90;;;;;;4981097;28;20309;-66
2023/08/08 08:09:14;;;;;;;2.80;2.07;;;16.10;99.90;;;;;;4988511;28;20733;-66
2023/08/08 08:11:41;;;;;;;3.80;1.90;;;16.20;99.90;;;;;;4988721;28;20325;-65
2023/08/08 08:14:08;;;;;;;2.03;1.90;;;16.20;99.90;;;;;;4988888;28;20242;-66
2023/08/08 08:16:36;;;;;;;2.33;2.10;;;16.20;99.90;;;;;;4988514;28;20269;-66
2023/08/08 08:19:03;;;;;;;3.80;1.73;;;16.20;99.90;;;;;;4988398;28;20983;-66
2023/08/08 08:21:30;;;;;;;3.40;1.90;;;16.40;99.90;;;;;;4988442;28;20734;-66
2023/08/08 08:23:57;;;;;;;1.70;1.60;;;16.50;99.90;;;;;;4987982;28;20687;-66
2023/08/08 08:26:24;;;;;;;2.80;2.00;;;16.60;99.90;;;;;;4988906;28;20300;-66
2023/08/08 08:28:51;;;;;;;2.70;1.90;;;16.70;99.90;;;;;;4988465;28;20345;-66
2023/08/08 08:31:18;;;;;;;2.13;1.70;;;16.70;99.90;;;;;;4957293;28;20255;-66
2023/08/08 08:33:46;;;;;;;3.10;1.83;;;16.60;99.90;;;;;;4949733;28;20314;-66
2023/08/08 08:36:14;;;;;;;3.00;1.70;;;16.50;99.90;;;;;;4949654;28;20610;-66
2023/08/08 08:38:40;;;;;;;2.50;1.50;;;16.40;99.90;;;;;;4949165;28;20211;-66
2023/08/08 08:41:09;;;;;;;5.67;2.10;;;16.40;99.90;;;;;;4949654;28;20218;-66
2023/08/08 08:43:36;;;;;;;1.90;1.70;;;16.50;99.90;;;;;;4960354;28;20211;-66
2023/08/08 08:46:04;;;;;;;2.97;2.00;;;16.60;99.90;;;;;;4968937;28;20217;-66
2023/08/08 08:48:32;;;;;;;3.20;2.00;;;16.60;99.90;;;;;;4969236;28;20221;-66
2023/08/08 08:51:00;;;;;;;2.40;1.77;;;16.70;99.90;;;;;;4968651;28;20241;-66
2023/08/08 08:53:27;;;;;;;2.10;1.90;;;16.70;99.90;;;;;;4969213;28;20305;-66
2023/08/08 08:55:56;;;;;;;1.93;1.83;;;16.80;99.90;;;;;;4969046;28;20846;-66
2023/08/08 08:58:25;;;;;;;3.70;1.90;;;16.90;99.90;;;;;;4969297;28;20314;-66
2023/08/08 09:00:52;;;;;;;4.47;1.70;;;17.00;99.90;;;;;;4964441;28;20303;-66
2023/08/08 09:03:19;;;;;;;1.57;1.47;;;17.00;99.90;;;;;;4983395;28;20207;-66
2023/08/08 09:05:48;;;;;;;4.80;2.17;;;17.00;99.90;;;;;;4987893;28;20214;-66
2023/08/08 09:08:16;;;;;;;2.87;1.80;;;17.10;99.90;;;;;;4987445;28;20211;-66
2023/08/08 09:10:43;;;;;;;2.27;2.07;;;17.20;99.90;;;;;;4987934;28;20237;-66
2023/08/08 09:13:10;;;;;;;3.23;1.93;;;17.30;99.90;;;;;;4988030;28;20580;-66
2023/08/08 09:15:36;;;;;;;1.93;1.73;;;17.30;99.90;;;;;;4982995;28;20266;-66
2023/08/08 09:18:04;;;;;;;2.40;2.10;;;17.30;99.90;;;;;;4968410;28;20225;-66
2023/08/08 09:20:31;;;;;;;5.03;2.10;;;17.30;99.90;;;;;;4968437;28;20710;-66
2023/08/08 09:22:58;;;;;;;1.80;1.70;;;17.30;99.90;;;;;;4968081;28;20625;-66
2023/08/08 09:25:27;;;;;;;3.50;1.97;;;17.40;99.90;;;;;;4968385;28;20207;-66
2023/08/08 09:27:55;;;;;;;3.17;2.00;;;17.60;99.90;;;;;;4968721;28;20325;-66
2023/08/08 09:30:22;;;;;;;1.93;1.77;;;17.80;99.90;;;;;;4968617;28;20229;-66
2023/08/08 09:32:49;;;;;;;2.00;1.73;;;17.90;99.90;;;;;;4968280;28;20683;-66
2023/08/08 09:35:16;;;;;;;2.50;2.10;;;18.10;99.90;;;;;;4968724;28;20643;-66
2023/08/08 09:37:43;;;;;;;2.90;1.77;;;18.10;99.90;;;;;;4967959;28;20298;-66
2023/08/08 09:40:11;;;;;;;2.10;1.90;;;18.10;99.90;;;;;;4968058;28;20243;-66
2023/08/08 09:42:41;;;;;;;2.00;1.80;;;17.90;99.90;;;;;;4968030;28;20214;-66
2023/08/08 09:45:10;;;;;;;3.10;2.10;;;17.70;99.90;;;;;;4967917;28;20217;-66
2023/08/08 09:47:38;;;;;;;1.83;1.70;;;17.60;99.90;;;;;;4967633;28;20209;-66
2023/08/08 09:50:06;;;;;;;4.17;1.80;;;17.40;99.90;;;;;;4967677;28;20210;-66
2023/08/08 09:52:34;;;;;;;3.13;1.50;;;17.30;99.90;;;;;;4967503;28;20237;-66
2023/08/08 09:55:02;;;;;;;5.60;2.03;;;17.20;99.90;;;;;;4967820;28;20309;-66
2023/08/08 09:57:30;;;;;;;1.93;1.43;;;17.20;99.90;;;;;;4967543;28;20301;-66
2023/08/08 09:59:58;;;;;;;2.73;1.70;;;17.10;99.90;;;;;;4967188;28;20221;-66
2023/08/08 10:02:26;;;;;;;3.13;2.10;;;17.10;99.90;;;;;;4967484;28;20342;-66
2023/08/08 10:04:54;;;;;;;2.10;1.90;;;17.10;99.90;;;;;;4967683;28;20289;-66
2023/08/08 10:07:22;;;;;;;4.33;1.80;;;17.10;99.90;;;;;;4967397;28;20207;-66
2023/08/08 10:09:50;;;;;;;1.87;1.77;;;17.10;99.90;;;;;;4967523;28;20701;-66
2023/08/08 10:12:17;;;;;;;2.70;2.37;;;17.10;99.90;;;;;;4966453;28;20345;-66
2023/08/08 10:14:45;;;;;;;3.30;2.10;;;17.10;99.90;;;;;;4967318;28;20215;-66
2023/08/08 10:17:16;;;;;;;2.13;1.93;;;17.30;99.90;;;;;;4966892;28;20206;-66
2023/08/08 10:19:52;;;;;;;2.70;1.60;;;17.50;99.90;;;;;;4967004;28;20278;-66
2023/08/08 10:22:23;;;;;;;2.60;1.63;;;17.80;99.90;;;;;;4966680;28;20206;-66
2023/08/08 10:24:52;;;;;;;2.90;2.00;;;18.00;99.90;;;;;;4966819;28;20191;-66
2023/08/08 10:27:29;;;;;;;1.80;1.70;;;18.30;99.90;;;;;;4967216;28;20237;-66
2023/08/08 10:30:03;;;;;;;4.30;2.00;;;18.60;99.90;;;;;;4966065;28;20195;-66
2023/08/08 10:32:39;;;;;;;1.53;1.43;;;18.50;99.90;;;;;;4946865;28;20998;-66
2023/08/08 10:35:08;;;;;;;2.30;1.53;;;18.40;99.90;;;;;;4950036;28;20567;-66
2023/08/08 10:37:35;;;;;;;1.57;1.47;;;18.20;99.90;;;;;;4966482;28;20227;-66
2023/08/08 10:40:05;;;;;;;3.43;1.80;;;18.00;99.90;;;;;;4967205;28;20762;-66
2023/08/08 10:42:32;;;;;;;1.67;1.53;;;17.60;99.90;;;;;;4966743;28;20795;-66
2023/08/08 10:45:00;;;;;;;2.63;2.00;;;17.30;99.90;;;;;;4966716;28;20211;-66
2023/08/08 10:47:31;;;;;;;1.90;1.80;;;17.20;99.90;;;;;;4966272;28;20210;-66
2023/08/08 10:50:05;;;;;;;1.67;1.57;;;17.20;99.90;;;;;;4966330;28;20317;-66
2023/08/08 10:52:34;;;;;;;1.57;1.47;;;17.30;99.90;;;;;;4966393;28;20227;-66
2023/08/08 10:55:02;;;;;;;1.63;1.50;;;17.40;99.90;;;;;;4975006;28;20222;-66
2023/08/08 10:57:31;;;;;;;2.23;1.70;;;17.70;99.90;;;;;;4985810;28;20683;-66
2023/08/08 11:00:18;;;;;;;1.70;1.50;;;18.00;99.90;;;;;;4984796;28;20248;-66
2023/08/08 11:02:45;;;;;;;1.50;1.40;;;18.30;99.90;;;;;;4966185;28;20298;-66
2023/08/08 11:05:16;;;;;;;1.70;1.60;;;18.70;99.90;;;;;;4966355;28;20203;-66
2023/08/08 11:07:43;;;;;;;2.93;1.80;;;18.80;99.90;;;;;;4966171;28;20297;-66
2023/08/08 11:10:11;;;;;;;3.43;1.57;;;19.10;99.90;;;;;;4966507;28;20321;-66
2023/08/08 11:12:38;;;;;;;3.67;1.30;;;19.20;99.90;;;;;;4965952;28;20768;-66
2023/08/08 11:15:05;;;;;;;2.83;1.10;;;18.90;99.90;;;;;;4966361;28;20206;-66
2023/08/08 11:17:33;;;;;;;1.33;1.00;;;18.00;99.90;;;;;;4966361;28;21164;-67
2023/08/08 11:20:01;;;;;;;1.17;1.17;;;17.50;99.90;;;;;;4966582;28;20297;-66
2023/08/08 11:22:29;;;;;;;1.20;1.20;;;17.40;99.90;;;;;;4966391;28;20238;-66
2023/08/08 11:25:02;;;;;;;1.87;1.10;;;17.00;99.90;;;;;;4969835;28;20305;-66
2023/08/08 11:27:29;;;;;;;1.17;1.07;;;16.80;99.90;;;;;;4970611;28;20269;-66
2023/08/08 11:29:57;;;;;;;4.23;1.23;;;16.70;99.90;;;;;;4970608;28;20237;-66
2023/08/08 11:32:25;;;;;;;1.13;1.10;;;16.60;99.90;;;;;;4969746;28;21048;-66
2023/08/08 11:34:52;;;;;;;1.80;1.33;;;16.80;99.90;;;;;;4970065;28;20847;-66
2023/08/08 11:37:19;;;;;;;1.50;1.20;;;17.10;99.90;;;;;;4969973;28;20230;-66
2023/08/08 11:39:48;;;;;;;3.40;1.60;;;17.30;99.90;;;;;;4969982;28;20261;-66
2023/08/08 11:42:15;;;;;;;1.80;1.70;;;17.60;99.90;;;;;;4969744;28;20276;-66
2023/08/08 11:44:42;;;;;;;1.80;1.70;;;18.00;99.90;;;;;;4969443;28;20738;-66
2023/08/08 11:47:09;;;;;;;2.40;2.20;;;18.20;99.90;;;;;;4969309;28;20207;-66
2023/08/08 11:49:42;;;;;;;2.07;1.87;;;18.30;99.90;;;;;;4969304;28;20217;-66
2023/08/08 11:52:09;;;;;;;3.10;1.70;;;18.60;99.90;;;;;;4985197;28;20234;-66
2023/08/08 11:54:38;;;;;;;1.93;1.70;;;18.80;99.90;;;;;;4988859;28;20314;-66
2023/08/08 11:57:07;;;;;;;2.37;2.10;;;18.90;99.90;;;;;;4989212;28;20214;-66
2023/08/08 11:59:34;;;;;;;1.70;1.60;;;19.10;99.90;;;;;;4989316;28;20214;-66
2023/08/08 12:02:01;;;;;;;2.80;2.03;;;19.30;99.90;;;;;;4971471;28;20314;-66
2023/08/08 12:04:28;;;;;;;1.90;1.80;;;19.30;99.90;;;;;;4969365;28;20736;-66
2023/08/08 12:07:03;;;;;;;2.20;2.00;;;19.50;99.90;;;;;;4969496;28;20210;-67
2023/08/08 12:09:32;;;;;;;1.83;1.60;;;19.70;99.90;;;;;;4969421;28;20195;-66
2023/08/08 12:12:00;;;;;;;4.07;2.00;;;19.90;99.90;;;;;;4969177;28;20741;-66
2023/08/08 12:14:29;;;;;;;3.77;1.70;;;20.20;99.90;;;;;;4969386;28;20306;-66
2023/08/08 12:16:57;;;;;;;2.10;1.90;;;20.40;99.90;;;;;;4968673;28;20207;-66
2023/08/08 12:19:25;;;;;;;1.90;1.80;;;20.00;99.90;;;;;;4969226;28;20249;-66
2023/08/08 12:21:52;;;;;;;2.20;2.00;;;20.20;99.90;;;;;;4968849;28;20242;-66
2023/08/08 12:24:19;;;;;;;1.80;1.70;;;20.20;99.90;;;;;;4968460;28;20302;-66
2023/08/08 12:26:46;;;;;;;2.87;1.87;;;20.20;99.90;;;;;;4968902;28;20313;-66
2023/08/08 12:29:13;;;;;;;3.73;2.20;;;20.10;99.90;;;;;;4969098;28;20210;-67
2023/08/08 12:31:41;;;;;;;2.73;1.83;;;19.90;99.90;;;;;;4968554;28;20286;-66
2023/08/08 12:34:08;;;;;;;4.80;2.00;;;19.70;99.90;;;;;;4968760;28;20214;-67
2023/08/08 12:36:35;;;;;;;1.93;1.80;;;19.70;99.90;;;;;;4968424;28;20219;-66
2023/08/08 12:39:02;;;;;;;1.90;1.77;;;19.80;99.90;;;;;;4969078;28;20730;-66
2023/08/08 12:41:30;;;;;;;1.73;1.63;;;19.60;99.90;;;;;;4969194;28;20246;-66
2023/08/08 12:43:57;;;;;;;3.97;1.97;;;19.80;99.90;;;;;;4968783;28;20211;-66
2023/08/08 12:46:24;;;;;;;1.80;1.60;;;19.80;99.90;;;;;;4968944;28;20297;-67
2023/08/08 12:48:52;;;;;;;3.53;2.07;;;19.80;99.90;;;;;;4968219;28;20306;-67
2023/08/08 12:51:19;;;;;;;2.43;1.87;;;19.70;99.90;;;;;;4968856;28;20221;-66
2023/08/08 12:53:46;;;;;;;1.57;1.40;;;19.80;99.90;;;;;;4968432;28;20242;-66
2023/08/08 12:56:13;;;;;;;2.27;1.33;;;20.10;99.90;;;;;;4968402;28;20645;-66
2023/08/08 12:58:40;;;;;;;1.40;1.30;;;20.30;99.90;;;;;;4968389;28;20211;-66
2023/08/08 13:01:08;;;;;;;2.60;1.50;;;20.60;99.90;;;;;;4963577;28;20215;-66
2023/08/08 13:03:35;;;;;;;3.87;1.37;;;20.60;99.90;;;;;;4968761;28;20217;-66
2023/08/08 13:06:03;;;;;;;2.77;1.30;;;20.70;99.90;;;;;;4968691;28;20304;-67
2023/08/08 13:08:32;;;;;;;2.30;1.60;;;20.90;99.90;;;;;;4968417;28;20293;-67
2023/08/08 13:10:59;;;;;;;2.73;1.83;;;21.00;99.90;;;;;;4966389;28;20203;-67
2023/08/08 13:13:26;;;;;;;1.90;1.70;;;21.20;99.90;;;;;;4966706;28;20245;-66
2023/08/08 13:15:53;;;;;;;2.13;1.63;;;21.20;99.90;;;;;;4956349;28;20207;-67
2023/08/08 13:18:20;;;;;;;3.07;1.90;;;21.20;99.90;;;;;;4966600;28;20285;-66
2023/08/08 13:20:47;;;;;;;4.00;1.83;;;20.80;99.90;;;;;;4965946;28;20302;-66
2023/08/08 13:23:15;;;;;;;3.73;1.97;;;20.50;99.90;;;;;;4966219;28;20214;-67
2023/08/08 13:25:42;;;;;;;1.83;1.50;;;20.20;99.90;;;;;;4966380;28;20227;-66
2023/08/08 13:28:09;;;;;;;5.13;1.43;;;19.90;99.90;;;;;;4966476;28;20217;-66
2023/08/08 13:30:36;;;;;;;2.87;1.70;;;19.30;99.90;;;;;;4966062;28;20306;-67
2023/08/08 13:33:03;;;;;;;2.43;1.60;;;18.00;99.90;;;;;;4965997;28;20250;-67
2023/08/08 13:35:31;;;;;;;2.00;1.33;;;16.30;99.90;;;;;;4965743;28;20298;-67
2023/08/08 13:37:57;;;;;;;2.60;1.40;;;15.60;99.90;;;;;;4965891;28;20210;-66
2023/08/08 13:40:26;;;;;;;2.40;1.47;;;15.40;99.90;;;;;;4966520;28;20305;-67
2023/08/08 13:42:53;;;;;;;1.50;1.40;;;15.30;99.90;;;;;;4966404;28;20214;-67
2023/08/08 13:45:21;;;;;;;16.00;1.87;;;15.20;99.90;;;;;;4955786;28;20235;-66
2023/08/08 13:47:50;;;;;;;1.43;1.33;;;15.40;99.90;;;;;;4947025;28;20222;-67
2023/08/08 13:50:17;;;;;;;2.27;1.50;;;15.40;99.90;;;;;;4947093;28;20302;-67
2023/08/08 13:52:44;;;;;;;3.00;1.77;;;15.50;99.90;;;;;;4946728;28;20342;-67
2023/08/08 13:55:11;;;;;;;1.70;1.60;;;15.70;99.90;;;;;;4946476;28;20334;-67
2023/08/08 13:57:39;;;;;;;2.03;1.63;;;16.00;99.90;;;;;;4957617;28;20666;-66
2023/08/08 14:00:10;;;;;;;4.93;1.53;;;16.30;99.90;;;;;;4965399;28;20298;-66
2023/08/08 14:02:37;;;;;;;2.27;1.40;;;16.60;99.90;;;;;;4963802;28;20696;-67
2023/08/08 14:05:06;;;;;;;1.53;1.43;;;16.70;99.90;;;;;;4966086;28;20309;-66
2023/08/08 14:07:34;;;;;;;1.90;1.53;;;16.90;99.90;;;;;;4965554;28;20780;-67
2023/08/08 14:10:01;;;;;;;2.33;1.40;;;16.90;99.90;;;;;;4965660;28;20237;-66
2023/08/08 14:12:28;;;;;;;1.60;1.30;;;17.30;99.90;;;;;;4965192;28;20625;-66
2023/08/08 14:14:56;;;;;;;2.37;1.80;;;17.50;99.90;;;;;;4965169;28;20596;-66
2023/08/08 14:17:23;;;;;;;1.40;1.30;;;17.90;99.90;;;;;;4964630;28;20208;-66
2023/08/08 14:19:50;;;;;;;1.97;1.43;;;18.10;99.90;;;;;;4964915;28;20330;-66
2023/08/08 14:22:17;;;;;;;1.80;1.70;;;18.30;99.90;;;;;;4965025;28;20338;-67
2023/08/08 14:24:44;;;;;;;1.50;1.40;;;18.40;99.90;;;;;;4946117;28;20215;-67
2023/08/08 14:27:11;;;;;;;3.80;1.77;;;18.70;99.90;;;;;;4945759;28;20258;-67
2023/08/08 14:29:39;;;;;;;1.80;1.70;;;19.00;99.90;;;;;;4945946;28;20223;-67
2023/08/08 14:32:07;;;;;;;1.70;1.60;;;19.30;99.90;;;;;;4963893;28;20329;-67
2023/08/08 14:34:37;;;;;;;3.13;1.70;;;19.30;99.90;;;;;;4965065;28;20285;-67
2023/08/08 14:37:04;;;;;;;1.60;1.50;;;19.50;99.90;;;;;;4965487;28;20242;-67
2023/08/08 14:39:31;;;;;;;2.07;1.80;;;19.60;99.90;;;;;;4968924;28;20206;-67
2023/08/08 14:41:58;;;;;;;2.43;1.63;;;19.60;99.90;;;;;;4975742;28;20226;-67
2023/08/08 14:44:26;;;;;;;3.30;1.60;;;19.70;99.90;;;;;;4965708;28;20215;-67
2023/08/08 14:46:53;;;;;;;2.10;1.70;;;20.00;99.90;;;;;;4965033;28;20273;-67
2023/08/08 14:49:22;;;;;;;2.07;1.80;;;20.30;99.90;;;;;;4965665;28;20211;-67
2023/08/08 14:51:49;;;;;;;3.57;1.57;;;20.20;99.90;;;;;;4960236;28;20640;-67
2023/08/08 14:54:16;;;;;;;3.37;1.70;;;19.80;99.90;;;;;;4966386;28;20270;-67
2023/08/08 14:56:43;;;;;;;1.70;1.60;;;19.80;99.90;;;;;;4966213;28;20297;-67
2023/08/08 14:59:10;;;;;;;1.97;1.60;;;19.70;99.90;;;;;;4966026;28;20238;-67
2023/08/08 15:01:37;;;;;;;1.90;1.60;;;19.60;99.90;;;;;;4966252;28;20253;-67
2023/08/08 15:04:04;;;;;;;1.97;1.43;;;19.60;99.90;;;;;;4965879;28;20293;-67
2023/08/08 15:06:32;;;;;;;1.03;1.00;;;19.40;99.90;;;;;;4966142;28;20213;-67
2023/08/08 15:09:00;;;;;;;1.70;1.07;;;19.40;99.90;;;;;;4965984;28;20215;-67
2023/08/08 15:11:27;;;;;;;2.73;1.17;;;19.40;99.90;;;;;;4965792;28;20211;-66
2023/08/08 15:13:54;;;;;;;0.97;0.90;;;19.30;99.90;;;;;;4965705;28;20258;-66
2023/08/08 15:16:21;;;;;;;1.73;0.90;;;19.30;99.90;;;;;;4965554;28;20213;-67
2023/08/08 15:18:48;;;;;;;2.73;1.20;;;19.20;99.90;;;;;;4965854;28;20724;-66
2023/08/08 15:21:19;;;;;;;3.33;1.37;;;19.00;99.90;;;;;;4965554;28;20669;-66